Terminal Aerodrome Forecast
Issued by NWS

Home | Current Version | Previous Version | Text Only | Print | Product List | Glossary On
Versions: 1 2 3 4 5 6 7 8 9 10 11 12 13 14 15 16 17 18 19 20 21 22 23 24 25 26 27 28 29 30 31
000
FTUS45 KGJT 260608 AAA
TAFCNY
TAF AMD
KCNY 260608Z 2606/2706 24005KT P6SM VCSH OVC030
      TEMPO 2606/2610 VRB03KT 3SM -SN BR SCT025 OVC030
     FM261100 VRB03KT 5SM BR OVC003
     FM261500 VRB03KT P6SM BKN060
     FM261800 34007KT P6SM BKN050
     FM270200 34005KT P6SM BKN080=

USA.gov is the U.S. government's official web portal to all federal, state and local government web resources and services.